Time;durP1;ratioP1;P1;durP2;ratioP2;P2;SDS_P1;SDS_P2;PMS_P1;PMS_P2;Temp;Humidity;BMP_temperature;BMP_pressure;BME280_temperature;BME280_humidity;BME280_pressure;Samples;Min_cycle;Max_cycle;Signal;HPM_P1;HPM_P2
2023/04/24 00:00:18;;;;;;;3.30;1.50;;;;;;;13.55;75.40;100006.53;4967424;28;20038;-41
2023/04/24 00:02:47;;;;;;;4.38;1.50;;;;;;;13.32;76.32;100010.31;4963868;28;20200;-45
2023/04/24 00:05:14;;;;;;;4.47;1.20;;;;;;;12.91;77.32;100010.72;4967616;28;20034;-42
2023/04/24 00:07:40;;;;;;;2.47;1.20;;;;;;;13.12;77.15;100003.53;4966002;28;20097;-43
2023/04/24 00:10:07;;;;;;;3.15;1.27;;;;;;;13.45;76.41;100008.41;4963905;28;20038;-43
2023/04/24 00:12:32;;;;;;;2.30;1.15;;;;;;;13.46;75.41;100004.91;4967262;28;20034;-43
2023/04/24 00:14:57;;;;;;;4.18;1.30;;;;;;;13.15;76.51;100014.00;4964012;28;20046;-43
2023/04/24 00:17:23;;;;;;;2.95;1.25;;;;;;;13.34;76.23;100018.16;4967519;28;20035;-43
2023/04/24 00:19:50;;;;;;;2.30;1.40;;;;;;;13.28;76.50;100013.88;4964179;28;20097;-47
2023/04/24 00:22:16;;;;;;;2.72;1.30;;;;;;;13.00;77.50;100012.38;4968042;28;20512;-44
2023/04/24 00:24:41;;;;;;;3.47;1.40;;;;;;;13.21;76.93;100020.03;4967247;28;20039;-43
2023/04/24 00:27:07;;;;;;;3.65;1.30;;;;;;;13.27;75.86;100021.72;4963782;28;20521;-43
2023/04/24 00:29:32;;;;;;;3.53;1.50;;;;;;;13.26;76.32;100023.47;4966461;28;20173;-44
2023/04/24 00:31:57;;;;;;;3.42;1.40;;;;;;;13.23;76.44;100012.19;4963965;28;20080;-43
2023/04/24 00:34:23;;;;;;;2.67;1.40;;;;;;;13.59;75.26;100019.59;4966373;28;20523;-43
2023/04/24 00:36:51;;;;;;;4.10;1.33;;;;;;;13.45;75.99;100023.25;4963489;28;20042;-42
2023/04/24 00:39:19;;;;;;;1.95;1.10;;;;;;;13.14;76.38;100015.75;4966750;28;20046;-43
2023/04/24 00:41:46;;;;;;;4.28;1.30;;;;;;;13.45;75.43;100012.78;4963658;28;20045;-47
2023/04/24 00:44:11;;;;;;;3.30;1.40;;;;;;;13.28;75.74;100015.59;4965717;28;20456;-43
2023/04/24 00:46:36;;;;;;;3.38;1.30;;;;;;;13.02;76.67;100013.22;4966543;28;20039;-44
2023/04/24 00:49:02;;;;;;;2.00;1.10;;;;;;;13.18;76.94;100013.97;4962802;28;20133;-43
2023/04/24 00:51:27;;;;;;;2.00;1.10;;;;;;;13.26;75.72;100004.28;4965686;28;20034;-43
2023/04/24 00:53:53;;;;;;;3.45;1.25;;;;;;;13.63;74.66;100010.81;4963645;28;20035;-43
2023/04/24 00:56:18;;;;;;;2.63;1.30;;;;;;;13.38;75.74;100012.84;4966986;28;20516;-43
2023/04/24 00:58:44;;;;;;;2.58;1.13;;;;;;;13.58;75.08;100011.75;4963185;28;20047;-53
2023/04/24 01:01:11;;;;;;;2.47;1.20;;;;;;;13.59;74.25;100014.38;4965177;28;20031;-44
2023/04/24 01:03:37;;;;;;;2.28;1.10;;;;;;;13.33;75.55;100012.06;4967086;28;20086;-43
2023/04/24 01:06:04;;;;;;;3.47;1.33;;;;;;;13.45;75.69;100016.28;4962250;28;20090;-42
2023/04/24 01:08:29;;;;;;;4.30;1.50;;;;;;;13.11;75.90;100010.53;4965647;28;20029;-42
2023/04/24 01:10:56;;;;;;;2.38;1.60;;;;;;;13.19;75.87;100019.19;4962535;28;20047;-43
2023/04/24 01:13:22;;;;;;;2.83;1.48;;;;;;;13.56;74.79;100008.28;4966345;28;20117;-42
2023/04/24 01:15:48;;;;;;;2.35;1.25;;;;;;;13.54;74.73;100013.53;4963619;28;20061;-42
2023/04/24 01:18:14;;;;;;;2.95;1.13;;;;;;;13.29;75.35;100012.13;4967132;28;20031;-42
2023/04/24 01:20:41;;;;;;;3.70;1.17;;;;;;;13.21;75.89;100013.94;4967145;28;20054;-43
2023/04/24 01:23:07;;;;;;;2.22;1.00;;;;;;;13.40;74.98;100016.34;4963798;28;20031;-43
2023/04/24 01:25:33;;;;;;;3.03;1.10;;;;;;;13.73;74.25;100015.03;4969511;28;20473;-43
2023/04/24 01:27:59;;;;;;;2.78;1.30;;;;;;;13.48;74.24;100020.63;4965665;28;20468;-40
2023/04/24 01:30:25;;;;;;;2.33;1.25;;;;;;;13.48;75.06;100016.22;4967117;28;20058;-45
2023/04/24 01:32:51;;;;;;;3.28;1.30;;;;;;;13.46;74.78;100019.75;4964040;28;20417;-40
2023/04/24 01:35:16;;;;;;;3.22;1.30;;;;;;;13.37;75.28;100020.72;4966645;28;20048;-43
2023/04/24 01:37:42;;;;;;;2.17;1.20;;;;;;;13.48;74.85;100016.22;4967966;28;20110;-42
2023/04/24 01:40:08;;;;;;;1.73;1.05;;;;;;;13.20;75.35;100020.91;4963001;28;20039;-43
2023/04/24 01:42:34;;;;;;;1.83;1.10;;;;;;;13.19;75.87;100015.69;4965988;28;20053;-42
2023/04/24 01:45:01;;;;;;;2.97;1.08;;;;;;;13.31;75.26;100016.44;4961962;28;20035;-44
2023/04/24 01:47:27;;;;;;;2.70;1.02;;;;;;;13.25;75.39;100021.72;4965608;28;20029;-43
2023/04/24 01:49:52;;;;;;;1.92;1.00;;;;;;;13.17;75.33;100018.34;4962825;28;20043;-42
2023/04/24 01:52:18;;;;;;;2.38;1.00;;;;;;;13.19;75.52;100018.31;4965594;28;20030;-42
2023/04/24 01:54:44;;;;;;;1.75;1.00;;;;;;;13.70;74.05;100015.09;4977281;28;20146;-44
2023/04/24 01:57:10;;;;;;;2.85;1.10;;;;;;;13.53;74.24;100014.44;4966888;28;20135;-44
2023/04/24 01:59:36;;;;;;;3.25;1.20;;;;;;;13.08;75.22;100014.91;4964721;28;20519;-42
2023/04/24 02:02:02;;;;;;;3.05;1.20;;;;;;;13.35;75.31;100022.50;4960273;28;20098;-42
2023/04/24 02:04:27;;;;;;;2.90;1.10;;;;;;;13.24;75.02;100012.13;4964673;28;20027;-43
2023/04/24 02:06:53;;;;;;;3.50;1.27;;;;;;;13.34;74.53;100008.56;4961935;28;20049;-45
2023/04/24 02:09:19;;;;;;;1.63;1.17;;;;;;;13.45;74.23;100007.56;4965488;28;20383;-44
2023/04/24 02:11:44;;;;;;;2.45;1.23;;;;;;;13.61;73.66;100007.34;4962418;28;20093;-43
2023/04/24 02:14:09;;;;;;;3.10;1.33;;;;;;;13.24;75.14;100006.91;4965493;28;20485;-44
2023/04/24 02:16:35;;;;;;;2.67;1.30;;;;;;;13.12;75.20;100009.66;4965988;28;20158;-42
2023/04/24 02:19:01;;;;;;;2.97;1.40;;;;;;;13.32;75.27;100005.06;4961597;28;20129;-44
2023/04/24 02:21:27;;;;;;;4.00;1.48;;;;;;;13.28;74.69;100002.53;4965668;28;20042;-43
2023/04/24 02:23:53;;;;;;;2.30;1.10;;;;;;;13.32;74.45;99999.84;4961712;28;20038;-43
2023/04/24 02:26:18;;;;;;;2.90;1.10;;;;;;;13.04;75.44;100011.47;4965287;28;20532;-43
2023/04/24 02:28:44;;;;;;;2.85;1.10;;;;;;;13.03;75.55;100004.50;4963887;28;20062;-43
2023/04/24 02:31:09;;;;;;;2.28;1.13;;;;;;;13.35;74.95;100001.56;4968532;28;20034;-43
2023/04/24 02:33:35;;;;;;;3.85;1.00;;;;;;;13.45;73.88;99997.06;4968305;28;20125;-43
2023/04/24 02:36:01;;;;;;;1.38;0.80;;;;;;;13.37;74.06;100002.41;4962294;28;20039;-43
2023/04/24 02:38:27;;;;;;;1.42;0.60;;;;;;;13.00;74.57;100001.91;4968680;28;20035;-43
2023/04/24 02:40:52;;;;;;;1.05;0.60;;;;;;;12.80;75.56;100003.88;4964955;28;20043;-42
2023/04/24 02:43:17;;;;;;;3.10;0.70;;;;;;;12.85;75.49;100002.94;4966624;28;20166;-43
2023/04/24 02:45:43;;;;;;;2.70;0.70;;;;;;;12.67;76.71;100005.72;4965518;28;20047;-43
2023/04/24 02:48:08;;;;;;;2.45;0.70;;;;;;;12.74;75.77;100004.81;4966520;28;20125;-41
2023/04/24 02:50:33;;;;;;;3.00;0.70;;;;;;;12.62;76.50;100006.66;4969432;28;20027;-46
2023/04/24 02:52:59;;;;;;;2.28;0.68;;;;;;;12.47;77.05;100011.13;4962772;28;20410;-40
2023/04/24 02:55:24;;;;;;;3.17;0.90;;;;;;;12.78;76.62;100010.84;4965584;28;20035;-45
2023/04/24 02:57:50;;;;;;;3.47;0.70;;;;;;;12.89;75.96;100015.09;4961932;28;20039;-42
2023/04/24 03:00:15;;;;;;;2.03;0.90;;;;;;;12.58;76.53;100014.50;4965978;28;20043;-45
2023/04/24 03:02:41;;;;;;;4.05;0.73;;;;;;;12.66;76.45;100008.34;4966403;28;20066;-44
2023/04/24 03:05:07;;;;;;;1.90;0.60;;;;;;;12.88;76.13;100018.59;4961842;28;20094;-42
2023/04/24 03:07:33;;;;;;;2.55;0.70;;;;;;;12.86;75.33;100019.50;4966072;28;20031;-43
2023/04/24 03:09:59;;;;;;;1.60;0.63;;;;;;;12.76;75.24;100020.47;4963076;28;20093;-42
2023/04/24 03:12:24;;;;;;;0.55;0.40;;;;;;;12.50;75.77;100023.31;4965496;28;20050;-42
2023/04/24 03:14:50;;;;;;;2.88;0.52;;;;;;;12.73;75.11;100028.34;4961592;28;20097;-43
2023/04/24 03:17:15;;;;;;;3.55;0.55;;;;;;;12.83;74.20;100035.22;4965529;28;20035;-47
2023/04/24 03:19:40;;;;;;;1.80;0.50;;;;;;;13.21;73.41;100033.13;4966051;28;20070;-43
2023/04/24 03:22:06;;;;;;;2.17;0.60;;;;;;;13.16;73.55;100037.56;4962262;28;20035;-44
2023/04/24 03:24:31;;;;;;;1.65;0.70;;;;;;;13.30;73.10;100035.63;4964802;28;20027;-43
2023/04/24 03:26:57;;;;;;;2.90;0.70;;;;;;;13.10;73.44;100034.09;4961461;28;20031;-45
2023/04/24 03:29:22;;;;;;;1.25;0.57;;;;;;;13.20;73.30;100038.38;4968152;28;20039;-42
2023/04/24 03:31:47;;;;;;;3.95;0.60;;;;;;;13.42;72.63;100025.94;4964362;28;20069;-39
2023/04/24 03:34:13;;;;;;;2.15;0.60;;;;;;;13.58;71.85;100030.09;4967738;28;20030;-40
2023/04/24 03:36:38;;;;;;;1.42;0.50;;;;;;;13.30;72.36;100027.78;4967250;28;20413;-40
2023/04/24 03:39:03;;;;;;;3.22;0.57;;;;;;;13.38;72.37;100023.34;4962951;28;20042;-39
2023/04/24 03:41:30;;;;;;;1.17;0.50;;;;;;;13.30;72.46;100030.41;4967320;28;20118;-38
2023/04/24 03:43:55;;;;;;;1.08;0.52;;;;;;;13.52;71.84;100031.03;4963674;28;20038;-39
2023/04/24 03:46:21;;;;;;;2.08;0.60;;;;;;;13.25;72.82;100033.94;4967227;28;20038;-41
2023/04/24 03:48:46;;;;;;;0.88;0.55;;;;;;;13.28;72.80;100036.56;4965681;28;20030;-38
2023/04/24 03:51:12;;;;;;;1.48;0.52;;;;;;;13.37;72.69;100036.44;4970906;28;20031;-40
2023/04/24 03:53:37;;;;;;;2.70;0.70;;;;;;;13.19;73.29;100031.41;4969546;28;20047;-39
2023/04/24 03:56:03;;;;;;;3.60;0.60;;;;;;;13.31;72.94;100042.59;4965321;28;20462;-39
2023/04/24 03:58:28;;;;;;;2.50;0.55;;;;;;;13.54;72.28;100041.50;4970426;28;20069;-39
2023/04/24 04:00:53;;;;;;;2.70;0.70;;;;;;;13.14;73.79;100034.06;4970617;28;20027;-39
2023/04/24 04:03:19;;;;;;;2.38;0.70;;;;;;;13.52;72.60;100044.13;4973968;28;20533;-39
2023/04/24 04:05:44;;;;;;;2.25;0.68;;;;;;;13.50;72.94;100037.16;4967566;28;20039;-40
2023/04/24 04:08:10;;;;;;;3.58;0.90;;;;;;;13.36;73.05;100040.78;4968465;28;20402;-39
2023/04/24 04:10:35;;;;;;;2.00;0.80;;;;;;;13.37;73.54;100045.16;4973104;28;20049;-46
2023/04/24 04:13:00;;;;;;;4.30;1.00;;;;;;;13.24;74.21;100046.16;4968410;28;20077;-39
2023/04/24 04:15:26;;;;;;;2.28;0.70;;;;;;;12.37;76.25;100055.66;4971641;28;20035;-43
2023/04/24 04:17:51;;;;;;;2.53;1.10;;;;;;;12.47;77.70;100052.09;4967741;28;20476;-42
2023/04/24 04:20:17;;;;;;;3.15;0.98;;;;;;;12.67;76.13;100065.00;4971671;28;20408;-40
2023/04/24 04:22:42;;;;;;;3.58;1.50;;;;;;;12.67;76.90;100062.41;4970134;28;20520;-39
2023/04/24 04:25:08;;;;;;;5.13;1.85;;;;;;;12.33;78.77;100065.25;4965869;28;20034;-41
2023/04/24 04:27:34;;;;;;;4.75;1.60;;;;;;;12.20;79.39;100079.25;4965736;28;20096;-41
2023/04/24 04:30:04;;;;;;;3.05;1.50;;;;;;;11.87;79.48;100097.72;4962135;28;20497;-39
2023/04/24 04:32:33;;;;;;;4.38;1.70;;;;;;;12.32;77.28;100091.41;4964358;28;20047;-38
2023/04/24 04:35:02;;;;;;;7.97;2.10;;;;;;;12.64;77.49;100094.66;4962571;28;20127;-39
2023/04/24 04:37:29;;;;;;;8.88;2.70;;;;;;;12.51;76.77;100103.47;4965617;28;20035;-40
2023/04/24 04:39:54;;;;;;;5.35;2.60;;;;;;;12.16;78.03;100114.13;4961173;28;20042;-41
2023/04/24 04:42:20;;;;;;;7.38;2.85;;;;;;;12.19;77.99;100115.00;4965532;28;20035;-38
2023/04/24 04:44:46;;;;;;;6.97;2.80;;;;;;;12.01;78.78;100125.53;4961973;28;20039;-42
2023/04/24 04:47:11;;;;;;;8.57;3.08;;;;;;;11.84;79.67;100131.69;4964494;28;20048;-40
2023/04/24 04:49:38;;;;;;;7.45;3.20;;;;;;;12.00;78.97;100133.38;4967651;28;20049;-39
2023/04/24 04:52:03;;;;;;;8.63;2.88;;;;;;;12.19;78.14;100137.66;4962955;28;20038;-39
2023/04/24 04:54:29;;;;;;;7.18;2.90;;;;;;;11.87;78.45;100147.34;4965067;28;20061;-39
2023/04/24 04:56:54;;;;;;;7.75;3.08;;;;;;;11.88;79.25;100160.41;4961813;28;20082;-39
2023/04/24 04:59:20;;;;;;;12.35;4.68;;;;;;;11.81;78.62;100155.22;4964628;28;20050;-39
2023/04/24 05:01:45;;;;;;;15.60;6.20;;;;;;;11.69;78.36;100176.97;4961727;28;20552;-39
2023/04/24 05:04:10;;;;;;;15.48;6.72;;;;;;;11.71;78.35;100177.84;4963803;28;20038;-38
2023/04/24 05:06:36;;;;;;;18.63;7.78;;;;;;;11.89;77.72;100188.28;4965534;28;20027;-39
2023/04/24 05:09:03;;;;;;;19.15;8.38;;;;;;;11.59;77.32;100186.53;4961609;28;20406;-40
2023/04/24 05:11:29;;;;;;;16.08;8.25;;;;;;;11.57;77.87;100192.66;4964914;28;20039;-38
2023/04/24 05:13:54;;;;;;;22.67;9.10;;;;;;;11.50;78.95;100206.59;4960195;28;20066;-44
2023/04/24 05:16:20;;;;;;;20.67;9.23;;;;;;;12.08;76.13;100216.06;4965153;28;20031;-41
2023/04/24 05:18:45;;;;;;;15.80;8.25;;;;;;;11.70;77.47;100221.38;4961729;28;20093;-40
2023/04/24 05:21:10;;;;;;;19.35;8.82;;;;;;;11.66;77.09;100235.28;4965623;28;20497;-41
2023/04/24 05:23:36;;;;;;;13.95;7.13;;;;;;;11.60;78.00;100237.91;4964911;28;20038;-38
2023/04/24 05:26:02;;;;;;;20.42;7.70;;;;;;;11.51;78.08;100242.25;4962671;28;20092;-39
2023/04/24 05:28:30;;;;;;;15.27;7.40;;;;;;;11.63;77.51;100252.69;4964945;28;20042;-39
2023/04/24 05:30:55;;;;;;;16.92;7.40;;;;;;;11.73;77.38;100259.63;4962444;28;20039;-39
2023/04/24 05:33:22;;;;;;;18.92;7.68;;;;;;;11.49;77.60;100270.97;4965270;28;20189;-39
2023/04/24 05:35:47;;;;;;;15.52;7.13;;;;;;;11.76;76.27;100280.56;4960827;28;20043;-42
2023/04/24 05:38:14;;;;;;;18.77;7.32;;;;;;;11.73;76.08;100284.06;4966378;28;20031;-40
2023/04/24 05:40:39;;;;;;;15.68;6.93;;;;;;;11.46;76.25;100283.16;4965009;28;20498;-41
2023/04/24 05:43:05;;;;;;;15.73;7.40;;;;;;;11.81;75.64;100291.88;4961863;28;20050;-41
2023/04/24 05:45:31;;;;;;;16.88;6.85;;;;;;;11.78;75.66;100300.56;4964362;28;20181;-39
2023/04/24 05:47:56;;;;;;;15.98;6.72;;;;;;;11.80;74.91;100300.59;4960296;28;20035;-45
2023/04/24 05:50:22;;;;;;;14.70;6.88;;;;;;;11.69;75.37;100310.13;4964320;28;20034;-39
2023/04/24 05:52:47;;;;;;;19.67;6.80;;;;;;;11.67;75.63;100317.09;4959975;28;20152;-38
2023/04/24 05:55:13;;;;;;;15.27;6.80;;;;;;;11.60;75.54;100316.22;4964197;28;20037;-43
2023/04/24 05:57:38;;;;;;;18.70;7.30;;;;;;;11.85;75.17;100330.19;4964001;28;20047;-40
2023/04/24 06:00:05;;;;;;;16.10;6.43;;;;;;;12.00;75.13;100329.31;4963680;28;20544;-40
2023/04/24 06:02:32;;;;;;;14.85;6.35;;;;;;;11.91;75.77;100342.34;4967722;28;20027;-40
2023/04/24 06:04:59;;;;;;;15.55;6.13;;;;;;;11.78;75.83;100344.97;4962994;28;20125;-39
2023/04/24 06:07:26;;;;;;;13.68;5.63;;;;;;;11.99;75.23;100354.56;4966886;28;20046;-42
2023/04/24 06:09:51;;;;;;;20.25;5.28;;;;;;;11.81;75.25;100370.25;4962041;28;20042;-38
2023/04/24 06:12:17;;;;;;;14.85;5.47;;;;;;;11.60;75.96;100372.78;4966330;28;20396;-38
2023/04/24 06:14:43;;;;;;;16.80;5.57;;;;;;;11.77;75.85;100378.94;4966384;28;20038;-41
2023/04/24 06:17:08;;;;;;;17.20;5.72;;;;;;;11.52;76.66;100392.81;4962092;28;20054;-38
2023/04/24 06:19:33;;;;;;;14.57;5.00;;;;;;;11.52;75.58;100392.81;4966424;28;20039;-39
2023/04/24 06:21:59;;;;;;;15.05;4.75;;;;;;;11.58;74.75;100395.44;4963047;28;20066;-41
2023/04/24 06:24:27;;;;;;;14.32;4.50;;;;;;;12.07;73.95;100404.22;4965471;28;20038;-40
2023/04/24 06:26:53;;;;;;;15.80;4.50;;;;;;;11.81;74.18;100408.53;4962063;28;20047;-41
2023/04/24 06:29:18;;;;;;;19.33;4.47;;;;;;;11.69;73.92;100423.28;4965030;28;20031;-40
2023/04/24 06:31:43;;;;;;;13.18;4.40;;;;;;;11.88;73.63;100415.50;4962436;28;20121;-39
2023/04/24 06:34:09;;;;;;;15.77;4.50;;;;;;;11.94;73.71;100423.34;4963622;28;20038;-39
2023/04/24 06:36:35;;;;;;;12.18;4.00;;;;;;;12.05;73.05;100430.31;4963926;28;20057;-42
2023/04/24 06:39:01;;;;;;;15.38;3.85;;;;;;;11.77;73.24;100432.03;4960281;28;20057;-39
2023/04/24 06:41:26;;;;;;;11.65;3.90;;;;;;;11.68;72.83;100436.34;4964313;28;20283;-38
2023/04/24 06:43:52;;;;;;;16.15;4.57;;;;;;;11.81;72.47;100448.59;4960874;28;20031;-40
2023/04/24 06:46:17;;;;;;;17.67;4.70;;;;;;;11.87;72.77;100438.16;4963359;28;20175;-41
2023/04/24 06:48:43;;;;;;;16.40;4.40;;;;;;;12.12;72.48;100459.94;4963690;28;20058;-38
2023/04/24 06:51:09;;;;;;;14.40;4.30;;;;;;;11.84;72.76;100464.25;4960613;28;20035;-40
2023/04/24 06:53:34;;;;;;;13.48;3.58;;;;;;;11.40;73.33;100483.25;4965410;28;20438;-39
2023/04/24 06:56:00;;;;;;;14.15;3.47;;;;;;;11.61;73.91;100484.19;4961475;28;20041;-40
2023/04/24 06:58:25;;;;;;;11.30;3.58;;;;;;;11.69;73.37;100496.41;4967670;28;20023;-40
2023/04/24 07:00:51;;;;;;;12.10;2.90;;;;;;;11.69;72.99;100490.31;4962306;28;20490;-40
2023/04/24 07:03:16;;;;;;;13.63;3.58;;;;;;;11.79;73.70;100497.31;4966942;28;20102;-40
2023/04/24 07:05:42;;;;;;;12.48;3.00;;;;;;;11.94;72.75;100493.88;4969525;28;20089;-40
2023/04/24 07:08:11;;;;;;;11.52;2.70;;;;;;;11.57;73.06;100495.50;4967656;28;20170;-39
2023/04/24 07:10:36;;;;;;;12.52;3.30;;;;;;;11.94;72.04;100510.44;4970522;28;20046;-39
2023/04/24 07:13:02;;;;;;;11.90;2.67;;;;;;;11.82;72.16;100514.75;4967647;28;20038;-42
2023/04/24 07:15:27;;;;;;;11.15;2.72;;;;;;;11.70;72.47;100519.03;4970488;28;20026;-43
2023/04/24 07:17:52;;;;;;;10.23;2.90;;;;;;;11.70;71.72;100521.66;4965897;28;20038;-40
2023/04/24 07:20:18;;;;;;;10.75;2.60;;;;;;;12.28;70.40;100529.63;4970834;28;20038;-40
2023/04/24 07:22:43;;;;;;;14.73;2.78;;;;;;;11.75;70.97;100533.03;4970174;28;20054;-42
2023/04/24 07:25:09;;;;;;;14.27;2.88;;;;;;;11.86;70.31;100538.25;4966602;28;20035;-40
2023/04/24 07:27:36;;;;;;;13.35;2.47;;;;;;;12.12;69.54;100544.44;4968900;28;20461;-39
2023/04/24 07:30:03;;;;;;;11.95;2.38;;;;;;;12.25;68.20;100552.28;4967471;28;20413;-38
2023/04/24 07:32:29;;;;;;;10.25;2.50;;;;;;;12.12;68.07;100546.16;4969676;28;20027;-39
2023/04/24 07:34:55;;;;;;;12.60;2.35;;;;;;;12.18;66.79;100543.56;4966054;28;20039;-38
2023/04/24 07:37:20;;;;;;;10.05;2.72;;;;;;;12.40;67.29;100552.28;4969031;28;20031;-38
2023/04/24 07:39:45;;;;;;;13.25;2.90;;;;;;;12.51;66.99;100558.41;4966062;28;20042;-39
2023/04/24 07:42:11;;;;;;;13.13;2.45;;;;;;;12.84;66.54;100574.09;4969884;28;20027;-41
2023/04/24 07:44:36;;;;;;;11.07;2.42;;;;;;;13.02;66.35;100578.44;4969768;28;20045;-39
2023/04/24 07:47:01;;;;;;;13.80;4.82;;;;;;;12.11;66.67;100581.88;4965467;28;20487;-39
2023/04/24 07:49:27;;;;;;;11.63;2.22;;;;;;;12.33;66.32;100581.91;4969222;28;20037;-36
2023/04/24 07:51:53;;;;;;;10.10;2.28;;;;;;;12.49;66.35;100575.84;4966116;28;20034;-37
2023/04/24 07:54:18;;;;;;;12.23;2.60;;;;;;;12.31;66.64;100586.28;4968725;28;20085;-39
2023/04/24 07:56:44;;;;;;;14.02;2.88;;;;;;;12.04;67.41;100587.09;4965086;28;20605;-45
2023/04/24 07:59:10;;;;;;;12.40;2.67;;;;;;;12.29;67.38;100596.72;4969234;28;20333;-40
2023/04/24 08:01:36;;;;;;;11.13;2.70;;;;;;;12.41;66.17;100593.25;4967538;28;20593;-40
2023/04/24 08:04:01;;;;;;;10.85;2.63;;;;;;;13.01;64.99;100600.25;4949598;28;20138;-40
2023/04/24 08:06:30;;;;;;;12.00;2.50;;;;;;;12.63;66.20;100610.72;4971913;28;20055;-41
2023/04/24 08:08:56;;;;;;;10.50;2.42;;;;;;;12.54;64.11;100613.31;4966430;28;20081;-38
2023/04/24 08:11:21;;;;;;;12.27;2.50;;;;;;;12.99;62.87;100618.56;4969932;28;20444;-38
2023/04/24 08:13:47;;;;;;;11.40;2.50;;;;;;;12.73;62.34;100622.06;4965520;28;20042;-40
2023/04/24 08:16:12;;;;;;;12.57;2.90;;;;;;;13.00;60.83;100622.94;4966573;28;20509;-37
2023/04/24 08:18:38;;;;;;;8.68;2.30;;;;;;;12.57;60.03;100623.78;4967102;28;20089;-38
2023/04/24 08:21:04;;;;;;;7.75;2.38;;;;;;;12.99;60.05;100636.88;4963436;28;20043;-38
2023/04/24 08:23:29;;;;;;;9.45;2.40;;;;;;;12.94;59.57;100633.38;4968283;28;20038;-39
2023/04/24 08:25:55;;;;;;;13.52;2.55;;;;;;;12.94;59.08;100637.75;4965617;28;20035;-38
2023/04/24 08:28:21;;;;;;;10.45;2.55;;;;;;;13.34;58.71;100644.75;4953279;28;20101;-38
2023/04/24 08:30:47;;;;;;;8.75;2.47;;;;;;;13.07;58.52;100649.09;4967979;28;20058;-39
2023/04/24 08:33:14;;;;;;;7.43;2.17;;;;;;;13.17;57.13;100648.25;4971722;28;20046;-42
2023/04/24 08:35:39;;;;;;;9.10;2.15;;;;;;;13.16;57.37;100657.00;4970380;28;20090;-40
2023/04/24 08:38:05;;;;;;;8.95;2.22;;;;;;;12.58;58.23;100667.38;4968319;28;20086;-39
2023/04/24 08:40:34;;;;;;;11.65;2.30;;;;;;;12.18;60.59;100664.66;4971561;28;20062;-41
2023/04/24 08:43:00;;;;;;;11.35;2.05;;;;;;;12.71;60.69;100665.66;4965252;28;20030;-40
2023/04/24 08:45:26;;;;;;;8.73;2.00;;;;;;;12.37;62.36;100696.09;4966136;28;20027;-41
2023/04/24 08:47:53;;;;;;;11.25;1.70;;;;;;;12.73;61.39;100675.25;4965888;28;20058;-38
2023/04/24 08:50:19;;;;;;;8.25;1.95;;;;;;;12.77;60.52;100687.47;4983264;28;20122;-39
2023/04/24 08:52:44;;;;;;;8.63;1.70;;;;;;;12.74;59.40;100686.59;4966503;28;20055;-40
2023/04/24 08:55:10;;;;;;;5.03;1.60;;;;;;;12.90;59.88;100694.47;4969355;28;20031;-39
2023/04/24 08:57:38;;;;;;;6.75;1.70;;;;;;;12.90;59.37;100689.22;4968749;28;20505;-39
2023/04/24 09:00:04;;;;;;;3.67;1.10;;;;;;;12.72;57.27;100689.19;4963466;28;20038;-40
2023/04/24 09:02:31;;;;;;;3.60;1.20;;;;;;;12.65;57.07;100691.78;4968120;28;20023;-39
2023/04/24 09:04:57;;;;;;;9.57;1.52;;;;;;;12.57;58.11;100689.16;4963915;28;20070;-44
2023/04/24 09:07:25;;;;;;;5.85;1.40;;;;;;;12.51;58.42;100697.84;4967973;28;20128;-40
2023/04/24 09:09:51;;;;;;;8.50;1.50;;;;;;;12.45;58.99;100713.53;4962238;28;20060;-39
2023/04/24 09:12:17;;;;;;;5.57;1.45;;;;;;;12.28;60.23;100707.38;4966076;28;20042;-38
2023/04/24 09:14:45;;;;;;;7.50;1.20;;;;;;;12.55;60.80;100709.22;4966495;28;20053;-36
2023/04/24 09:17:11;;;;;;;5.45;1.33;;;;;;;12.23;61.87;100714.31;4965310;28;20085;-38
2023/04/24 09:19:36;;;;;;;6.65;1.10;;;;;;;12.43;62.49;100709.19;4965796;28;20054;-41
2023/04/24 09:22:06;;;;;;;7.93;1.23;;;;;;;12.86;61.04;100712.78;4963986;28;20046;-40
2023/04/24 09:24:31;;;;;;;9.02;1.40;;;;;;;13.16;60.49;100712.84;4964813;28;20105;-37
2023/04/24 09:26:58;;;;;;;7.40;1.55;;;;;;;13.63;58.75;100718.03;4961451;28;20518;-37
2023/04/24 09:29:24;;;;;;;6.68;1.15;;;;;;;13.34;59.11;100722.44;4964585;28;20050;-39
2023/04/24 09:31:49;;;;;;;6.53;1.27;;;;;;;13.41;59.02;100726.78;4961763;28;20482;-37
2023/04/24 09:34:21;;;;;;;5.88;1.30;;;;;;;13.29;56.90;100729.41;4964875;28;20397;-42
2023/04/24 09:36:46;;;;;;;5.15;1.10;;;;;;;13.76;55.42;100725.00;4960350;28;20035;-40
2023/04/24 09:39:15;;;;;;;6.22;1.30;;;;;;;13.63;54.03;100732.88;4964679;28;20031;-40
2023/04/24 09:42:07;;;;;;;6.78;1.13;;;;;;;13.21;55.54;100739.00;4964336;28;20045;-38
2023/04/24 09:44:34;;;;;;;4.90;0.95;;;;;;;13.15;57.22;100741.63;4963517;28;20501;-37
2023/04/24 09:47:00;;;;;;;11.73;1.35;;;;;;;13.14;57.11;100748.59;4961075;28;20046;-38
2023/04/24 09:49:27;;;;;;;6.40;1.15;;;;;;;13.64;56.93;100745.97;4961834;28;20031;-38
2023/04/24 09:52:03;;;;;;;9.15;1.17;;;;;;;13.44;55.85;100760.81;4960650;28;20120;-39
2023/04/24 09:54:29;;;;;;;6.70;1.00;;;;;;;13.05;57.01;100766.00;4963402;28;20126;-38
2023/04/24 09:56:55;;;;;;;4.78;1.10;;;;;;;12.65;59.18;100780.72;4960630;28;20066;-39
2023/04/24 09:59:20;;;;;;;6.38;1.50;;;;;;;12.26;62.08;100784.06;4962665;28;20111;-38
2023/04/24 10:01:46;;;;;;;7.32;1.20;;;;;;;12.66;62.03;100795.53;4961561;28;20074;-39
2023/04/24 10:04:29;;;;;;;6.65;1.10;;;;;;;12.68;63.52;100785.97;4964760;28;20378;-40
2023/04/24 10:06:56;;;;;;;5.85;1.20;;;;;;;12.42;63.03;100804.16;4961992;28;20512;-40
2023/04/24 10:09:26;;;;;;;7.55;0.95;;;;;;;12.61;62.01;100795.53;4965648;28;20038;-39
2023/04/24 10:11:53;;;;;;;5.20;1.20;;;;;;;12.62;62.17;100797.28;4962610;28;20045;-40
2023/04/24 10:14:24;;;;;;;5.50;1.02;;;;;;;12.64;61.19;100789.44;4963916;28;20035;-47
2023/04/24 10:16:53;;;;;;;5.80;0.98;;;;;;;12.43;60.92;100785.00;4961438;28;20043;-39
2023/04/24 10:19:18;;;;;;;5.13;0.80;;;;;;;12.14;61.21;100783.09;4964947;28;20066;-38
2023/04/24 10:21:46;;;;;;;5.07;0.93;;;;;;;13.02;59.69;100787.81;4963794;28;20066;-39
2023/04/24 10:24:16;;;;;;;6.78;1.10;;;;;;;12.77;59.25;100786.88;4960780;28;20039;-40
2023/04/24 10:26:42;;;;;;;5.72;1.15;;;;;;;13.04;59.14;100791.31;4964983;28;20118;-40
2023/04/24 10:29:11;;;;;;;5.50;1.25;;;;;;;13.32;58.80;100797.47;4960744;28;20035;-40
2023/04/24 10:31:38;;;;;;;6.53;0.95;;;;;;;13.42;59.05;100793.97;4964185;28;20046;-39
2023/04/24 10:34:04;;;;;;;6.25;1.02;;;;;;;13.86;57.50;100791.34;4960135;28;20464;-37
2023/04/24 10:36:32;;;;;;;9.65;1.27;;;;;;;13.69;58.78;100798.34;4962231;28;20031;-38
2023/04/24 10:39:00;;;;;;;4.35;1.17;;;;;;;13.70;60.11;100798.38;4960626;28;20046;-39
2023/04/24 10:41:26;;;;;;;5.72;1.17;;;;;;;13.46;59.12;100800.97;4964962;28;20030;-38
2023/04/24 10:44:24;;;;;;;7.07;1.50;;;;;;;13.27;60.81;100814.94;4962110;28;20402;-38
2023/04/24 10:46:55;;;;;;;7.53;1.23;;;;;;;13.03;60.00;100818.34;4949748;28;20409;-39
2023/04/24 10:49:31;;;;;;;8.10;1.30;;;;;;;12.97;61.34;100840.13;4963679;28;20096;-42
2023/04/24 10:52:01;;;;;;;7.18;1.20;;;;;;;12.73;61.82;100842.66;4960536;28;20413;-35
2023/04/24 10:54:49;;;;;;;6.90;1.45;;;;;;;13.00;61.35;100832.28;4963490;28;20034;-38
2023/04/24 10:57:21;;;;;;;6.07;1.30;;;;;;;13.22;61.29;100833.25;4962183;28;20098;-39
2023/04/24 11:00:06;;;;;;;8.20;1.40;;;;;;;13.77;59.49;100833.28;4959979;28;20130;-40
2023/04/24 11:02:39;;;;;;;5.20;1.13;;;;;;;13.81;57.82;100833.28;4962119;28;20043;-37
2023/04/24 11:05:06;;;;;;;2.83;0.90;;;;;;;13.64;55.89;100837.66;4959873;28;20038;-38
2023/04/24 11:08:13;;;;;;;6.88;1.13;;;;;;;13.77;55.86;100836.78;4963828;28;20034;-37
2023/04/24 11:10:53;;;;;;;5.15;0.90;;;;;;;14.26;56.19;100828.88;4962049;28;20039;-40
2023/04/24 11:13:22;;;;;;;5.00;1.05;;;;;;;14.88;54.78;100833.91;4963828;28;20038;-39
2023/04/24 11:16:21;;;;;;;4.40;1.25;;;;;;;15.20;54.02;100835.47;4962899;28;20046;-40
2023/04/24 11:18:52;;;;;;;4.38;1.13;;;;;;;15.20;51.90;100840.72;4960304;28;20058;-41